sensor_id;sensor_type;location;lat;lon;timestamp;pressure;altitude;pressure_sealevel;temperature;humidity
78841;BME280;68379;47.190;27.558;2023-04-03T00:01:09;99149.65;;;6.77;90.25
78841;BME280;68379;47.190;27.558;2023-04-03T00:03:41;99148.46;;;6.75;90.20
78841;BME280;68379;47.190;27.558;2023-04-03T00:06:13;99160.11;;;6.73;90.25
78841;BME280;68379;47.190;27.558;2023-04-03T00:08:45;99158.42;;;6.71;90.14
78841;BME280;68379;47.190;27.558;2023-04-03T00:11:17;99156.04;;;6.70;90.13
78841;BME280;68379;47.190;27.558;2023-04-03T00:13:49;99160.34;;;6.67;90.21
78841;BME280;68379;47.190;27.558;2023-04-03T00:16:20;99158.27;;;6.66;89.96
78841;BME280;68379;47.190;27.558;2023-04-03T00:18:52;99156.57;;;6.65;90.09
78841;BME280;68379;47.190;27.558;2023-04-03T00:21:24;99158.38;;;6.63;89.96
78841;BME280;68379;47.190;27.558;2023-04-03T00:23:56;99154.56;;;6.62;90.04
78841;BME280;68379;47.190;27.558;2023-04-03T00:26:28;99156.16;;;6.61;90.02
78841;BME280;68379;47.190;27.558;2023-04-03T00:28:59;99156.88;;;6.60;90.09
78841;BME280;68379;47.190;27.558;2023-04-03T00:31:31;99156.73;;;6.60;90.18
78841;BME280;68379;47.190;27.558;2023-04-03T00:34:03;99163.96;;;6.59;89.84
78841;BME280;68379;47.190;27.558;2023-04-03T00:36:35;99162.42;;;6.57;89.83
78841;BME280;68379;47.190;27.558;2023-04-03T00:39:06;99165.27;;;6.56;89.93
78841;BME280;68379;47.190;27.558;2023-04-03T00:41:38;99172.30;;;6.56;89.83
78841;BME280;68379;47.190;27.558;2023-04-03T00:47:10;99177.97;;;6.55;89.69
78841;BME280;68379;47.190;27.558;2023-04-03T00:49:44;99174.86;;;6.52;89.53
78841;BME280;68379;47.190;27.558;2023-04-03T00:52:19;99174.73;;;6.51;89.11
78841;BME280;68379;47.190;27.558;2023-04-03T00:54:56;99179.66;;;6.50;89.27
78841;BME280;68379;47.190;27.558;2023-04-03T00:57:29;99180.29;;;6.48;89.15
78841;BME280;68379;47.190;27.558;2023-04-03T01:00:05;99178.23;;;6.46;89.18
78841;BME280;68379;47.190;27.558;2023-04-03T01:02:39;99181.99;;;6.44;89.09
78841;BME280;68379;47.190;27.558;2023-04-03T01:05:11;99183.64;;;6.42;89.17
78841;BME280;68379;47.190;27.558;2023-04-03T01:07:45;99190.91;;;6.40;88.90
78841;BME280;68379;47.190;27.558;2023-04-03T01:10:17;99180.66;;;6.37;88.99
78841;BME280;68379;47.190;27.558;2023-04-03T01:12:49;99182.32;;;6.34;88.96
78841;BME280;68379;47.190;27.558;2023-04-03T01:15:24;99181.96;;;6.29;89.00
78841;BME280;68379;47.190;27.558;2023-04-03T01:17:57;99188.05;;;6.25;88.71
78841;BME280;68379;47.190;27.558;2023-04-03T01:23:49;99187.81;;;6.22;89.06
78841;BME280;68379;47.190;27.558;2023-04-03T01:26:22;99186.61;;;6.21;89.17
78841;BME280;68379;47.190;27.558;2023-04-03T01:28:58;99184.72;;;6.20;89.21
78841;BME280;68379;47.190;27.558;2023-04-03T01:31:40;99181.75;;;6.19;89.38
78841;BME280;68379;47.190;27.558;2023-04-03T01:34:12;99186.20;;;6.17;89.29
78841;BME280;68379;47.190;27.558;2023-04-03T01:36:44;99192.77;;;6.15;89.25
78841;BME280;68379;47.190;27.558;2023-04-03T01:39:16;99190.90;;;6.13;89.34
78841;BME280;68379;47.190;27.558;2023-04-03T01:41:48;99195.30;;;6.12;89.31
78841;BME280;68379;47.190;27.558;2023-04-03T01:44:20;99197.96;;;6.11;89.40
78841;BME280;68379;47.190;27.558;2023-04-03T01:46:52;99195.37;;;6.10;89.22
78841;BME280;68379;47.190;27.558;2023-04-03T01:49:24;99199.39;;;6.10;89.11
78841;BME280;68379;47.190;27.558;2023-04-03T01:51:55;99195.73;;;6.09;89.01
78841;BME280;68379;47.190;27.558;2023-04-03T01:54:27;99199.78;;;6.09;89.09
78841;BME280;68379;47.190;27.558;2023-04-03T01:56:59;99208.59;;;6.07;89.26
78841;BME280;68379;47.190;27.558;2023-04-03T01:59:31;99211.13;;;6.05;88.79
78841;BME280;68379;47.190;27.558;2023-04-03T02:02:03;99208.16;;;6.05;88.51
78841;BME280;68379;47.190;27.558;2023-04-03T02:04:35;99211.70;;;6.04;88.55
78841;BME280;68379;47.190;27.558;2023-04-03T02:07:07;99211.36;;;6.03;88.64
78841;BME280;68379;47.190;27.558;2023-04-03T02:09:38;99208.93;;;6.03;88.50
78841;BME280;68379;47.190;27.558;2023-04-03T02:12:10;99216.00;;;6.00;88.64
78841;BME280;68379;47.190;27.558;2023-04-03T02:14:42;99223.09;;;5.98;88.58
78841;BME280;68379;47.190;27.558;2023-04-03T02:17:14;99223.17;;;5.96;88.53
78841;BME280;68379;47.190;27.558;2023-04-03T02:19:46;99229.15;;;5.95;88.59
78841;BME280;68379;47.190;27.558;2023-04-03T02:22:17;99228.81;;;5.95;88.77
78841;BME280;68379;47.190;27.558;2023-04-03T02:24:50;99235.98;;;5.95;88.90
78841;BME280;68379;47.190;27.558;2023-04-03T02:27:22;99237.05;;;5.94;88.75
78841;BME280;68379;47.190;27.558;2023-04-03T02:29:53;99230.77;;;5.94;88.66
78841;BME280;68379;47.190;27.558;2023-04-03T02:32:25;99236.77;;;5.92;88.81
78841;BME280;68379;47.190;27.558;2023-04-03T02:34:57;99235.21;;;5.90;88.68
78841;BME280;68379;47.190;27.558;2023-04-03T02:37:29;99243.43;;;5.91;88.45
78841;BME280;68379;47.190;27.558;2023-04-03T02:40:00;99240.80;;;5.91;88.31
78841;BME280;68379;47.190;27.558;2023-04-03T02:42:32;99235.86;;;5.92;88.31
78841;BME280;68379;47.190;27.558;2023-04-03T02:45:05;99243.25;;;5.91;87.64
78841;BME280;68379;47.190;27.558;2023-04-03T02:47:36;99249.14;;;5.88;87.50
78841;BME280;68379;47.190;27.558;2023-04-03T02:50:09;99242.87;;;5.87;87.23
78841;BME280;68379;47.190;27.558;2023-04-03T02:52:41;99261.48;;;5.85;86.51
78841;BME280;68379;47.190;27.558;2023-04-03T02:55:15;99250.66;;;5.84;86.59
78841;BME280;68379;47.190;27.558;2023-04-03T02:57:46;99256.14;;;5.82;86.81
78841;BME280;68379;47.190;27.558;2023-04-03T03:00:19;99257.05;;;5.81;87.02
78841;BME280;68379;47.190;27.558;2023-04-03T03:02:51;99252.59;;;5.78;86.96
78841;BME280;68379;47.190;27.558;2023-04-03T03:05:23;99262.27;;;5.76;86.60
78841;BME280;68379;47.190;27.558;2023-04-03T03:07:55;99258.06;;;5.77;86.94
78841;BME280;68379;47.190;27.558;2023-04-03T03:10:27;99262.68;;;5.75;86.91
78841;BME280;68379;47.190;27.558;2023-04-03T03:12:59;99260.58;;;5.75;86.88
78841;BME280;68379;47.190;27.558;2023-04-03T03:15:31;99262.48;;;5.76;87.30
78841;BME280;68379;47.190;27.558;2023-04-03T03:18:03;99265.16;;;5.74;87.08
78841;BME280;68379;47.190;27.558;2023-04-03T03:20:34;99266.95;;;5.73;87.40
78841;BME280;68379;47.190;27.558;2023-04-03T03:23:06;99269.96;;;5.72;87.56
78841;BME280;68379;47.190;27.558;2023-04-03T03:25:41;99272.40;;;5.72;87.76
78841;BME280;68379;47.190;27.558;2023-04-03T03:28:13;99270.27;;;5.73;87.89
78841;BME280;68379;47.190;27.558;2023-04-03T03:30:45;99267.47;;;5.73;88.08
78841;BME280;68379;47.190;27.558;2023-04-03T03:33:17;99269.34;;;5.75;88.21
78841;BME280;68379;47.190;27.558;2023-04-03T03:35:48;99268.79;;;5.75;88.19
78841;BME280;68379;47.190;27.558;2023-04-03T03:38:20;99275.92;;;5.78;88.00
78841;BME280;68379;47.190;27.558;2023-04-03T03:40:52;99277.50;;;5.77;88.17
78841;BME280;68379;47.190;27.558;2023-04-03T03:43:24;99283.84;;;5.77;87.85
78841;BME280;68379;47.190;27.558;2023-04-03T03:45:56;99284.91;;;5.76;87.95
78841;BME280;68379;47.190;27.558;2023-04-03T03:48:27;99292.80;;;5.76;88.02
78841;BME280;68379;47.190;27.558;2023-04-03T03:50:59;99287.39;;;5.75;88.06
78841;BME280;68379;47.190;27.558;2023-04-03T03:53:31;99284.11;;;5.73;88.03
78841;BME280;68379;47.190;27.558;2023-04-03T03:56:03;99288.27;;;5.75;88.09
78841;BME280;68379;47.190;27.558;2023-04-03T03:58:36;99292.17;;;5.73;87.89
78841;BME280;68379;47.190;27.558;2023-04-03T04:01:08;99291.15;;;5.72;87.78
78841;BME280;68379;47.190;27.558;2023-04-03T04:03:40;99287.18;;;5.70;87.51
78841;BME280;68379;47.190;27.558;2023-04-03T04:06:12;99295.80;;;5.68;87.60
78841;BME280;68379;47.190;27.558;2023-04-03T04:08:44;99294.42;;;5.68;87.67
78841;BME280;68379;47.190;27.558;2023-04-03T04:11:16;99299.85;;;5.68;87.43
78841;BME280;68379;47.190;27.558;2023-04-03T04:13:49;99298.27;;;5.68;87.37
78841;BME280;68379;47.190;27.558;2023-04-03T04:16:21;99307.02;;;5.68;87.65
78841;BME280;68379;47.190;27.558;2023-04-03T04:18:53;99310.73;;;5.67;87.51
78841;BME280;68379;47.190;27.558;2023-04-03T04:21:25;99305.20;;;5.65;87.38
78841;BME280;68379;47.190;27.558;2023-04-03T04:23:57;99301.91;;;5.63;87.23
78841;BME280;68379;47.190;27.558;2023-04-03T04:26:29;99306.13;;;5.63;87.32
78841;BME280;68379;47.190;27.558;2023-04-03T04:29:02;99309.25;;;5.64;87.47
78841;BME280;68379;47.190;27.558;2023-04-03T04:31:34;99309.27;;;5.63;87.05
78841;BME280;68379;47.190;27.558;2023-04-03T04:34:06;99310.50;;;5.63;86.99
78841;BME280;68379;47.190;27.558;2023-04-03T04:36:38;99319.81;;;5.62;86.73
78841;BME280;68379;47.190;27.558;2023-04-03T04:39:10;99316.98;;;5.63;87.06
78841;BME280;68379;47.190;27.558;2023-04-03T04:41:42;99314.50;;;5.65;86.75
78841;BME280;68379;47.190;27.558;2023-04-03T04:44:14;99320.95;;;5.65;86.59
78841;BME280;68379;47.190;27.558;2023-04-03T04:46:46;99330.94;;;5.65;86.43
78841;BME280;68379;47.190;27.558;2023-04-03T04:49:18;99330.39;;;5.66;86.27
78841;BME280;68379;47.190;27.558;2023-04-03T04:51:50;99331.65;;;5.65;86.24
78841;BME280;68379;47.190;27.558;2023-04-03T04:54:22;99334.64;;;5.65;86.11
78841;BME280;68379;47.190;27.558;2023-04-03T04:56:53;99342.04;;;5.63;85.99
78841;BME280;68379;47.190;27.558;2023-04-03T04:59:25;99339.67;;;5.60;85.99
78841;BME280;68379;47.190;27.558;2023-04-03T05:01:58;99347.45;;;5.58;85.98
78841;BME280;68379;47.190;27.558;2023-04-03T05:04:30;99342.17;;;5.58;86.07
78841;BME280;68379;47.190;27.558;2023-04-03T05:07:02;99353.39;;;5.58;86.04
78841;BME280;68379;47.190;27.558;2023-04-03T05:09:34;99358.46;;;5.59;85.87
78841;BME280;68379;47.190;27.558;2023-04-03T05:12:06;99355.84;;;5.58;85.66
78841;BME280;68379;47.190;27.558;2023-04-03T05:14:37;99355.14;;;5.58;86.00
78841;BME280;68379;47.190;27.558;2023-04-03T05:17:09;99359.03;;;5.57;85.71
78841;BME280;68379;47.190;27.558;2023-04-03T05:19:41;99363.02;;;5.58;85.65
78841;BME280;68379;47.190;27.558;2023-04-03T05:22:13;99363.03;;;5.58;85.54
78841;BME280;68379;47.190;27.558;2023-04-03T05:24:45;99360.63;;;5.62;85.60
78841;BME280;68379;47.190;27.558;2023-04-03T05:27:17;99361.89;;;5.68;85.63
78841;BME280;68379;47.190;27.558;2023-04-03T05:29:49;99363.00;;;5.72;85.20
78841;BME280;68379;47.190;27.558;2023-04-03T05:32:21;99366.98;;;5.75;85.12
78841;BME280;68379;47.190;27.558;2023-04-03T05:34:54;99369.71;;;5.77;84.88
78841;BME280;68379;47.190;27.558;2023-04-03T05:37:26;99374.70;;;5.80;84.89
78841;BME280;68379;47.190;27.558;2023-04-03T05:39:57;99381.37;;;5.80;84.59
78841;BME280;68379;47.190;27.558;2023-04-03T05:42:30;99381.33;;;5.82;84.41
78841;BME280;68379;47.190;27.558;2023-04-03T05:45:02;99385.05;;;5.80;84.49
78841;BME280;68379;47.190;27.558;2023-04-03T05:47:34;99390.60;;;5.76;83.57
78841;BME280;68379;47.190;27.558;2023-04-03T05:50:07;99392.54;;;5.76;84.18
78841;BME280;68379;47.190;27.558;2023-04-03T05:52:42;99387.42;;;5.77;84.08
78841;BME280;68379;47.190;27.558;2023-04-03T05:55:17;99393.52;;;5.78;83.62
78841;BME280;68379;47.190;27.558;2023-04-03T05:57:49;99397.86;;;5.79;83.55
78841;BME280;68379;47.190;27.558;2023-04-03T06:00:22;99397.85;;;5.80;83.23
78841;BME280;68379;47.190;27.558;2023-04-03T06:02:54;99391.48;;;5.82;83.52
78841;BME280;68379;47.190;27.558;2023-04-03T06:05:26;99394.71;;;5.86;82.91
78841;BME280;68379;47.190;27.558;2023-04-03T06:07:58;99397.95;;;5.89;82.66
78841;BME280;68379;47.190;27.558;2023-04-03T06:10:30;99392.05;;;5.93;82.42
78841;BME280;68379;47.190;27.558;2023-04-03T06:13:02;99398.89;;;5.95;82.01
78841;BME280;68379;47.190;27.558;2023-04-03T06:15:34;99403.39;;;5.96;82.10
78841;BME280;68379;47.190;27.558;2023-04-03T06:18:07;99411.64;;;5.96;81.59
78841;BME280;68379;47.190;27.558;2023-04-03T06:20:39;99404.96;;;5.97;82.04
78841;BME280;68379;47.190;27.558;2023-04-03T06:23:10;99412.28;;;5.98;81.61
78841;BME280;68379;47.190;27.558;2023-04-03T06:25:42;99415.73;;;6.00;81.48
78841;BME280;68379;47.190;27.558;2023-04-03T06:28:14;99412.50;;;6.03;81.80
78841;BME280;68379;47.190;27.558;2023-04-03T06:30:46;99416.14;;;6.05;81.56
78841;BME280;68379;47.190;27.558;2023-04-03T06:33:18;99420.60;;;6.07;81.09
78841;BME280;68379;47.190;27.558;2023-04-03T06:35:52;99423.30;;;6.13;81.01
78841;BME280;68379;47.190;27.558;2023-04-03T06:38:27;99422.46;;;6.17;80.47
78841;BME280;68379;47.190;27.558;2023-04-03T06:41:00;99422.73;;;6.20;80.95
78841;BME280;68379;47.190;27.558;2023-04-03T06:43:32;99420.41;;;6.22;80.36
78841;BME280;68379;47.190;27.558;2023-04-03T06:46:04;99426.51;;;6.23;80.13
78841;BME280;68379;47.190;27.558;2023-04-03T06:48:36;99428.95;;;6.23;80.04
78841;BME280;68379;47.190;27.558;2023-04-03T06:51:12;99421.85;;;6.26;80.06
78841;BME280;68379;47.190;27.558;2023-04-03T06:53:46;99434.15;;;6.32;79.91
78841;BME280;68379;47.190;27.558;2023-04-03T06:56:18;99428.04;;;6.37;79.88
78841;BME280;68379;47.190;27.558;2023-04-03T06:58:51;99433.51;;;6.42;79.47
78841;BME280;68379;47.190;27.558;2023-04-03T07:01:25;99439.53;;;6.46;79.65
78841;BME280;68379;47.190;27.558;2023-04-03T07:03:58;99434.94;;;6.53;79.25
78841;BME280;68379;47.190;27.558;2023-04-03T07:06:30;99436.11;;;6.61;79.01
78841;BME280;68379;47.190;27.558;2023-04-03T07:09:04;99441.36;;;6.67;78.91
78841;BME280;68379;47.190;27.558;2023-04-03T07:11:37;99435.93;;;6.78;78.78
78841;BME280;68379;47.190;27.558;2023-04-03T07:14:09;99446.80;;;6.85;78.01
78841;BME280;68379;47.190;27.558;2023-04-03T07:16:41;99439.83;;;6.89;77.92
78841;BME280;68379;47.190;27.558;2023-04-03T07:19:13;99450.27;;;6.98;78.01
78841;BME280;68379;47.190;27.558;2023-04-03T07:21:45;99451.85;;;7.09;78.50
78841;BME280;68379;47.190;27.558;2023-04-03T07:24:16;99462.27;;;7.18;77.24
78841;BME280;68379;47.190;27.558;2023-04-03T07:26:52;99467.14;;;7.14;76.93
78841;BME280;68379;47.190;27.558;2023-04-03T07:29:24;99469.73;;;7.10;76.82
78841;BME280;68379;47.190;27.558;2023-04-03T07:31:56;99465.50;;;7.05;77.03
78841;BME280;68379;47.190;27.558;2023-04-03T07:34:28;99479.19;;;7.06;77.07
78841;BME280;68379;47.190;27.558;2023-04-03T07:37:00;99473.94;;;7.05;77.54
78841;BME280;68379;47.190;27.558;2023-04-03T07:39:32;99473.80;;;7.09;77.38
78841;BME280;68379;47.190;27.558;2023-04-03T07:42:05;99473.17;;;7.12;77.17
78841;BME280;68379;47.190;27.558;2023-04-03T07:44:37;99479.36;;;7.11;76.90
78841;BME280;68379;47.190;27.558;2023-04-03T07:47:09;99476.73;;;7.11;76.79
78841;BME280;68379;47.190;27.558;2023-04-03T07:49:41;99483.98;;;7.10;76.76
78841;BME280;68379;47.190;27.558;2023-04-03T07:52:13;99488.80;;;7.07;77.53
78841;BME280;68379;47.190;27.558;2023-04-03T07:54:45;99490.14;;;7.09;77.16
78841;BME280;68379;47.190;27.558;2023-04-03T07:57:17;99490.88;;;7.08;77.15
78841;BME280;68379;47.190;27.558;2023-04-03T07:59:49;99498.61;;;7.08;77.35
78841;BME280;68379;47.190;27.558;2023-04-03T08:02:21;99503.42;;;7.11;77.21
78841;BME280;68379;47.190;27.558;2023-04-03T08:04:53;99505.46;;;7.13;76.98
78841;BME280;68379;47.190;27.558;2023-04-03T08:07:25;99500.73;;;7.19;77.42
78841;BME280;68379;47.190;27.558;2023-04-03T08:09:57;99502.70;;;7.35;76.85
78841;BME280;68379;47.190;27.558;2023-04-03T08:12:29;99508.73;;;7.44;75.56
78841;BME280;68379;47.190;27.558;2023-04-03T08:15:02;99503.60;;;7.40;74.90
78841;BME280;68379;47.190;27.558;2023-04-03T08:17:35;99503.06;;;7.45;75.80
78841;BME280;68379;47.190;27.558;2023-04-03T08:20:09;99501.38;;;7.54;75.70
78841;BME280;68379;47.190;27.558;2023-04-03T08:22:42;99503.92;;;7.57;75.59
78841;BME280;68379;47.190;27.558;2023-04-03T08:25:15;99514.52;;;7.61;75.41
78841;BME280;68379;47.190;27.558;2023-04-03T08:27:45;99507.74;;;7.58;74.97
78841;BME280;68379;47.190;27.558;2023-04-03T08:30:18;99513.46;;;7.71;74.09
78841;BME280;68379;47.190;27.558;2023-04-03T08:32:50;99516.91;;;7.89;72.62
78841;BME280;68379;47.190;27.558;2023-04-03T08:35:22;99519.56;;;7.99;72.04
78841;BME280;68379;47.190;27.558;2023-04-03T08:37:54;99528.31;;;8.16;71.57
78841;BME280;68379;47.190;27.558;2023-04-03T08:40:26;99527.54;;;8.29;70.73
78841;BME280;68379;47.190;27.558;2023-04-03T08:43:12;99533.52;;;8.50;70.31
78841;BME280;68379;47.190;27.558;2023-04-03T08:45:53;99530.17;;;8.64;70.97
78841;BME280;68379;47.190;27.558;2023-04-03T08:48:31;99538.74;;;8.80;70.54
78841;BME280;68379;47.190;27.558;2023-04-03T08:51:11;99549.26;;;8.96;69.78
78841;BME280;68379;47.190;27.558;2023-04-03T08:53:53;99558.03;;;8.96;68.72
78841;BME280;68379;47.190;27.558;2023-04-03T08:56:28;99562.86;;;9.04;69.47
78841;BME280;68379;47.190;27.558;2023-04-03T08:59:03;99570.45;;;9.00;68.03
78841;BME280;68379;47.190;27.558;2023-04-03T09:01:38;99566.96;;;8.84;67.94
78841;BME280;68379;47.190;27.558;2023-04-03T09:04:13;99574.61;;;8.82;68.46
78841;BME280;68379;47.190;27.558;2023-04-03T09:06:48;99572.49;;;8.82;67.86
78841;BME280;68379;47.190;27.558;2023-04-03T09:09:32;99580.33;;;8.80;68.45
78841;BME280;68379;47.190;27.558;2023-04-03T09:12:15;99580.05;;;8.92;68.50
78841;BME280;68379;47.190;27.558;2023-04-03T09:14:58;99582.13;;;8.98;66.85
78841;BME280;68379;47.190;27.558;2023-04-03T09:17:47;99585.40;;;9.00;67.75
78841;BME280;68379;47.190;27.558;2023-04-03T09:20:26;99583.80;;;9.10;69.21
78841;BME280;68379;47.190;27.558;2023-04-03T09:23:03;99579.92;;;9.24;69.18
78841;BME280;68379;47.190;27.558;2023-04-03T09:25:38;99588.93;;;9.46;67.55
78841;BME280;68379;47.190;27.558;2023-04-03T09:28:10;99599.77;;;9.49;65.14
78841;BME280;68379;47.190;27.558;2023-04-03T09:30:42;99595.95;;;9.38;64.39
78841;BME280;68379;47.190;27.558;2023-04-03T09:33:15;99595.53;;;9.31;65.40
78841;BME280;68379;47.190;27.558;2023-04-03T09:35:49;99606.95;;;9.32;66.38
78841;BME280;68379;47.190;27.558;2023-04-03T09:38:22;99613.77;;;9.23;66.04
78841;BME280;68379;47.190;27.558;2023-04-03T09:41:07;99622.83;;;9.27;67.27
78841;BME280;68379;47.190;27.558;2023-04-03T09:43:54;99616.98;;;9.08;66.17
78841;BME280;68379;47.190;27.558;2023-04-03T09:46:31;99633.89;;;8.94;66.39
78841;BME280;68379;47.190;27.558;2023-04-03T09:49:04;99636.80;;;8.82;67.16
78841;BME280;68379;47.190;27.558;2023-04-03T09:51:35;99629.39;;;8.82;67.55
78841;BME280;68379;47.190;27.558;2023-04-03T09:54:36;99637.95;;;8.84;67.63
78841;BME280;68379;47.190;27.558;2023-04-03T09:57:10;99635.29;;;8.80;66.23
78841;BME280;68379;47.190;27.558;2023-04-03T09:59:46;99643.91;;;8.70;66.09
78841;BME280;68379;47.190;27.558;2023-04-03T10:02:35;99636.02;;;8.65;66.31
78841;BME280;68379;47.190;27.558;2023-04-03T10:05:31;99640.03;;;8.70;67.55
78841;BME280;68379;47.190;27.558;2023-04-03T10:08:17;99640.20;;;8.85;66.43
78841;BME280;68379;47.190;27.558;2023-04-03T10:11:09;99639.98;;;9.01;66.10
78841;BME280;68379;47.190;27.558;2023-04-03T10:13:58;99641.05;;;9.25;66.26
78841;BME280;68379;47.190;27.558;2023-04-03T10:16:37;99642.60;;;9.63;65.70
78841;BME280;68379;47.190;27.558;2023-04-03T10:19:32;99647.31;;;9.91;64.26
78841;BME280;68379;47.190;27.558;2023-04-03T10:22:11;99639.61;;;10.03;63.31
78841;BME280;68379;47.190;27.558;2023-04-03T10:24:52;99651.89;;;10.14;63.89
78841;BME280;68379;47.190;27.558;2023-04-03T10:27:31;99651.14;;;10.23;63.27
78841;BME280;68379;47.190;27.558;2023-04-03T10:30:24;99660.27;;;10.21;61.93
78841;BME280;68379;47.190;27.558;2023-04-03T10:33:11;99665.92;;;10.07;61.47
78841;BME280;68379;47.190;27.558;2023-04-03T10:35:56;99671.36;;;10.08;63.04
78841;BME280;68379;47.190;27.558;2023-04-03T10:38:43;99670.50;;;10.08;62.66
78841;BME280;68379;47.190;27.558;2023-04-03T10:41:25;99668.57;;;10.03;62.48
78841;BME280;68379;47.190;27.558;2023-04-03T10:44:11;99664.39;;;10.15;63.06
78841;BME280;68379;47.190;27.558;2023-04-03T10:46:49;99669.04;;;10.13;62.29
78841;BME280;68379;47.190;27.558;2023-04-03T10:49:41;99671.11;;;9.83;61.99
78841;BME280;68379;47.190;27.558;2023-04-03T10:52:22;99671.14;;;9.55;63.20
78841;BME280;68379;47.190;27.558;2023-04-03T10:55:01;99675.95;;;9.30;63.75
78841;BME280;68379;47.190;27.558;2023-04-03T10:57:34;99677.16;;;9.21;64.23
78841;BME280;68379;47.190;27.558;2023-04-03T11:00:13;99677.64;;;9.22;64.24
78841;BME280;68379;47.190;27.558;2023-04-03T11:02:54;99683.57;;;9.29;64.68
78841;BME280;68379;47.190;27.558;2023-04-03T11:05:34;99683.33;;;9.31;64.94
78841;BME280;68379;47.190;27.558;2023-04-03T11:08:15;99696.73;;;9.21;64.27
78841;BME280;68379;47.190;27.558;2023-04-03T11:10:55;99699.31;;;9.08;64.32
78841;BME280;68379;47.190;27.558;2023-04-03T11:13:34;99692.02;;;9.04;64.75
78841;BME280;68379;47.190;27.558;2023-04-03T11:16:09;99702.06;;;9.04;64.18
78841;BME280;68379;47.190;27.558;2023-04-03T11:18:49;99696.96;;;9.10;64.89
78841;BME280;68379;47.190;27.558;2023-04-03T11:21:27;99702.05;;;9.11;64.31
78841;BME280;68379;47.190;27.558;2023-04-03T11:24:05;99696.33;;;9.18;64.77
78841;BME280;68379;47.190;27.558;2023-04-03T11:26:40;99685.09;;;9.20;63.49
78841;BME280;68379;47.190;27.558;2023-04-03T11:29:18;99681.05;;;9.25;63.35
78841;BME280;68379;47.190;27.558;2023-04-03T11:32:08;99675.73;;;9.45;62.89
78841;BME280;68379;47.190;27.558;2023-04-03T11:34:42;99687.84;;;9.61;61.96
78841;BME280;68379;47.190;27.558;2023-04-03T11:37:20;99685.70;;;9.66;62.29
78841;BME280;68379;47.190;27.558;2023-04-03T11:39:58;99692.72;;;9.53;62.14
78841;BME280;68379;47.190;27.558;2023-04-03T11:42:35;99685.69;;;9.29;62.87
78841;BME280;68379;47.190;27.558;2023-04-03T11:45:27;99682.11;;;9.11;63.76
78841;BME280;68379;47.190;27.558;2023-04-03T11:48:03;99691.46;;;8.95;64.15
78841;BME280;68379;47.190;27.558;2023-04-03T11:50:46;99692.56;;;8.84;64.27
78841;BME280;68379;47.190;27.558;2023-04-03T11:53:33;99704.27;;;8.56;64.27
78841;BME280;68379;47.190;27.558;2023-04-03T11:56:30;99705.21;;;8.37;64.57
78841;BME280;68379;47.190;27.558;2023-04-03T11:59:24;99707.25;;;8.23;65.00
78841;BME280;68379;47.190;27.558;2023-04-03T12:01:58;99707.39;;;8.18;65.40
78841;BME280;68379;47.190;27.558;2023-04-03T12:04:29;99703.41;;;8.11;65.35
78841;BME280;68379;47.190;27.558;2023-04-03T12:07:18;99699.52;;;8.11;65.37
78841;BME280;68379;47.190;27.558;2023-04-03T12:13:13;99699.38;;;8.15;65.12
78841;BME280;68379;47.190;27.558;2023-04-03T12:15:52;99695.30;;;8.16;65.43
78841;BME280;68379;47.190;27.558;2023-04-03T12:22:14;99673.88;;;8.15;65.29
78841;BME280;68379;47.190;27.558;2023-04-03T12:24:48;99677.29;;;8.18;64.84
78841;BME280;68379;47.190;27.558;2023-04-03T12:27:29;99669.31;;;8.15;64.99
78841;BME280;68379;47.190;27.558;2023-04-03T12:30:16;99665.88;;;8.18;65.34
78841;BME280;68379;47.190;27.558;2023-04-03T12:33:17;99673.30;;;8.22;64.59
78841;BME280;68379;47.190;27.558;2023-04-03T12:36:02;99671.80;;;8.25;64.31
78841;BME280;68379;47.190;27.558;2023-04-03T12:41:37;99667.73;;;8.20;64.80
78841;BME280;68379;47.190;27.558;2023-04-03T12:44:41;99672.34;;;8.13;64.82
78841;BME280;68379;47.190;27.558;2023-04-03T12:47:28;99672.83;;;8.20;64.82
78841;BME280;68379;47.190;27.558;2023-04-03T12:50:04;99674.80;;;8.30;64.93
78841;BME280;68379;47.190;27.558;2023-04-03T12:52:39;99673.39;;;8.47;64.45
78841;BME280;68379;47.190;27.558;2023-04-03T12:55:20;99673.29;;;8.55;63.65
78841;BME280;68379;47.190;27.558;2023-04-03T12:57:52;99674.84;;;8.56;63.46
78841;BME280;68379;47.190;27.558;2023-04-03T13:00:31;99666.33;;;8.53;63.05
78841;BME280;68379;47.190;27.558;2023-04-03T13:03:02;99660.48;;;8.54;62.06
78841;BME280;68379;47.190;27.558;2023-04-03T13:05:36;99661.43;;;8.41;61.95
78841;BME280;68379;47.190;27.558;2023-04-03T13:08:12;99670.00;;;8.37;62.38
78841;BME280;68379;47.190;27.558;2023-04-03T13:10:58;99679.17;;;8.37;62.49
78841;BME280;68379;47.190;27.558;2023-04-03T13:13:30;99672.86;;;8.25;63.37
78841;BME280;68379;47.190;27.558;2023-04-03T13:16:10;99681.34;;;8.24;64.01
78841;BME280;68379;47.190;27.558;2023-04-03T13:18:43;99690.13;;;8.19;63.78
78841;BME280;68379;47.190;27.558;2023-04-03T13:21:25;99687.23;;;8.16;64.32
78841;BME280;68379;47.190;27.558;2023-04-03T13:23:59;99684.35;;;8.12;64.06
78841;BME280;68379;47.190;27.558;2023-04-03T13:26:33;99682.81;;;8.05;64.16
78841;BME280;68379;47.190;27.558;2023-04-03T13:29:28;99690.29;;;8.03;64.60
78841;BME280;68379;47.190;27.558;2023-04-03T13:32:01;99691.66;;;7.98;63.67
78841;BME280;68379;47.190;27.558;2023-04-03T13:34:40;99690.67;;;7.96;63.73
78841;BME280;68379;47.190;27.558;2023-04-03T13:37:24;99699.31;;;7.95;63.63
78841;BME280;68379;47.190;27.558;2023-04-03T13:40:03;99704.85;;;7.93;63.31
78841;BME280;68379;47.190;27.558;2023-04-03T13:42:42;99701.84;;;7.88;63.49
78841;BME280;68379;47.190;27.558;2023-04-03T13:45:21;99711.02;;;7.80;63.87
78841;BME280;68379;47.190;27.558;2023-04-03T13:48:06;99707.10;;;7.70;64.10
78841;BME280;68379;47.190;27.558;2023-04-03T13:50:55;99701.90;;;7.62;63.92
78841;BME280;68379;47.190;27.558;2023-04-03T13:53:29;99693.20;;;7.52;64.48
78841;BME280;68379;47.190;27.558;2023-04-03T13:56:08;99686.06;;;7.50;64.28
78841;BME280;68379;47.190;27.558;2023-04-03T13:58:39;99684.33;;;7.50;64.50